Terminal Aerodrome Forecast
Issued by NWS

Home | Current Version | Previous Version | Text Only | Print | Product List | Glossary On
Versions: 1 2 3 4 5 6 7 8 9 10 11 12 13 14 15 16 17
000
FTUS44 KTSA 191128
TAFMLC
TAF
KMLC 191128Z 1912/2012 17014G24KT P6SM OVC016
     FM191900 18013G22KT P6SM OVC010 PROB30 2000/2006 3SM TSRA
      OVC007CB
     FM200600 18013G22KT P6SM VCTS OVC007CB=

USA.gov is the U.S. government's official web portal to all federal, state and local government web resources and services.